CST,Max TemperatureF,Mean TemperatureF,Min TemperatureF,Max Dew PointF,MeanDew PointF,Min DewpointF,Max Humidity, Mean Humidity, Min Humidity, Max Sea Level PressureIn, Mean Sea Level PressureIn, Min Sea Level PressureIn, Max VisibilityMiles, Mean VisibilityMiles, Min VisibilityMiles, Max Wind SpeedMPH, Mean Wind SpeedMPH, Max Gust SpeedMPH,PrecipitationIn, CloudCover, Events, WindDirDegrees
2011-11-1,69,52,34,40,33,26,92,57,21,30.33,30.27,30.23,10,10,10,12,4,15,0.00,1,,106
2011-11-2,70,56,41,40,36,34,76,52,28,30.35,30.25,30.14,10,10,10,15,7,20,0.00,0,,132
2011-11-3,59,52,45,55,44,33,93,72,50,30.14,29.97,29.88,10,8,2,21,11,30,0.20,7,Rain,237
2011-11-4,60,50,40,46,42,38,92,75,57,30.17,30.09,29.99,10,9,2,17,7,21,T,6,,343
2011-11-5,68,52,35,45,40,31,96,69,42,30.25,30.21,30.16,10,5,0,18,8,25,0.00,1,Fog,105
2011-11-6,68,57,45,46,41,32,77,61,45,30.38,30.30,30.25,10,10,10,20,9,25,0.00,1,,125
2011-11-7,74,59,44,51,47,42,92,68,44,30.34,30.27,30.19,10,10,10,14,6,18,0.00,2,,119
2011-11-8,76,64,52,52,49,47,77,60,43,30.21,30.12,30.04,10,10,10,17,8,23,0.00,5,,144
2011-11-9,67,56,45,61,50,36,76,66,55,30.14,30.04,30.00,10,8,2,16,10,22,0.07,5,Rain,255
2011-11-10,57,45,32,35,27,15,85,54,22,30.21,30.17,30.12,10,10,10,20,7,28,0.00,2,,317
2011-11-11,61,44,26,32,26,19,92,58,24,30.26,30.19,30.14,10,10,10,10,4,18,0.00,0,,198
2011-11-12,63,49,35,34,30,27,76,51,25,30.26,30.19,30.11,10,10,10,18,9,24,0.00,5,,165
2011-11-13,75,66,56,57,48,33,73,57,40,30.12,30.03,29.94,10,10,10,25,13,37,0.00,6,,185
2011-11-14,77,71,65,64,62,57,84,74,64,30.03,29.96,29.90,10,10,10,21,11,29,T,7,Rain,193
2011-11-15,73,69,64,66,64,62,93,83,73,29.95,29.89,29.82,10,9,2,15,7,21,0.13,7,Rain,192
2011-11-16,71,60,48,66,56,36,93,82,71,30.06,29.85,29.71,10,8,1,23,11,29,0.71,8,Rain,8
2011-11-17,52,43,34,34,24,18,64,46,28,30.38,30.27,30.09,10,10,10,21,10,25,T,1,Rain,3
2011-11-18,57,42,27,27,24,19,78,53,28,30.42,30.33,30.25,10,10,10,16,8,22,0.00,1,,124
2011-11-19,67,56,45,54,43,23,72,55,38,30.28,30.22,30.16,10,10,10,20,11,25,0.00,7,,150
2011-11-20,68,63,58,63,58,53,93,81,68,30.26,30.22,30.20,10,9,2,14,6,18,0.19,8,Rain,153
2011-11-21,70,65,60,64,61,59,100,88,76,30.25,30.18,30.07,10,8,3,16,6,22,0.00,7,Fog,167
2011-11-22,68,64,59,63,59,55,97,85,73,30.05,29.98,29.86,10,8,1,17,8,23,0.59,8,Rain-Thunderstorm,200
2011-11-23,59,51,42,52,46,40,86,76,66,30.32,30.16,30.01,10,10,6,20,9,25,T,7,Rain,338
2011-11-24,62,51,40,43,40,37,92,72,51,30.41,30.35,30.31,10,6,0,8,3,10,0.00,4,,46
2011-11-25,67,52,36,43,39,35,92,65,37,30.36,30.26,30.18,10,10,10,15,6,21,0.00,1,,132
2011-11-26,72,61,49,52,49,43,83,64,44,30.20,30.09,29.94,10,10,10,24,13,30,0.00,6,,145
2011-11-27,66,55,44,59,53,41,97,78,58,29.96,29.91,29.85,10,4,2,23,9,31,2.36,8,Rain,284
2011-11-28,44,40,36,41,38,33,96,91,85,29.90,29.80,29.74,10,5,2,17,10,21,0.57,8,Rain-Snow,270
2011-11-29,39,37,34,36,34,32,92,86,79,30.09,29.91,29.77,10,7,2,17,10,23,0.16,8,Rain-Snow,258
2011-11-30,48,39,30,36,32,27,92,71,49,30.23,30.15,30.06,10,10,8,10,5,15,0.00,4,,320